createdAt,value
2018-08-06T00:00:40.327Z,74.81
2018-08-06T00:03:09.471Z,74.00
2018-08-06T00:05:38.384Z,72.42
2018-08-06T00:08:07.769Z,71.32
2018-08-06T00:10:36.655Z,70.58
2018-08-06T00:13:05.673Z,67.66
2018-08-06T00:15:34.615Z,67.73
2018-08-06T00:18:03.422Z,70.47
2018-08-06T00:20:32.254Z,75.53
2018-08-06T00:23:01.281Z,80.19
2018-08-06T00:25:30.232Z,86.44
2018-08-06T00:27:59.063Z,95.70
2018-08-06T00:30:28.000Z,98.41
2018-08-06T00:32:56.898Z,89.92
2018-08-06T00:35:25.817Z,96.52
2018-08-06T00:37:54.716Z,96.26
2018-08-06T00:40:23.619Z,90.82
2018-08-06T00:42:52.561Z,89.27
2018-08-06T00:45:22.140Z,88.81
2018-08-06T00:47:51.224Z,90.79
2018-08-06T00:50:20.085Z,88.97
2018-08-06T00:52:49.143Z,86.18
2018-08-06T00:55:19.217Z,80.27
2018-08-06T00:57:48.057Z,76.80
2018-08-06T01:00:18.075Z,82.52
2018-08-06T01:02:46.982Z,78.00
2018-08-06T01:05:16.432Z,77.20
2018-08-06T01:07:45.677Z,81.77
2018-08-06T01:10:15.860Z,91.92
2018-08-06T01:12:44.762Z,93.74
2018-08-06T01:15:15.827Z,94.76
2018-08-06T01:17:44.738Z,98.14
2018-08-06T01:20:14.251Z,98.52
2018-08-06T01:22:43.987Z,100.00
2018-08-06T01:25:13.583Z,100.00
2018-08-06T01:27:42.536Z,98.11
2018-08-06T01:30:13.167Z,96.32
2018-08-06T01:32:42.109Z,94.54
2018-08-06T01:35:11.708Z,96.03
2018-08-06T01:37:40.716Z,97.73
2018-08-06T01:40:13.210Z,100.00
2018-08-06T01:42:42.504Z,100.00
2018-08-06T01:45:13.133Z,98.53
2018-08-06T01:47:42.025Z,93.76
2018-08-06T01:50:11.965Z,91.00
2018-08-06T01:52:41.354Z,90.73
2018-08-06T01:55:10.241Z,90.31
2018-08-06T01:57:39.128Z,93.59
2018-08-06T02:00:11.031Z,90.19
2018-08-06T02:02:39.886Z,100.00
2018-08-06T02:05:09.331Z,91.32
2018-08-06T02:07:38.608Z,93.88
2018-08-06T02:10:10.525Z,99.43
2018-08-06T02:12:39.889Z,100.00
2018-08-06T02:15:10.136Z,100.00
2018-08-06T02:17:39.415Z,100.00
2018-08-06T02:20:09.775Z,100.00
2018-08-06T02:22:38.712Z,100.00
2018-08-06T02:25:09.013Z,100.00
2018-08-06T02:27:37.896Z,100.00
2018-08-06T02:30:09.351Z,100.00
2018-08-06T02:32:38.352Z,100.00
2018-08-06T02:35:08.393Z,100.00
2018-08-06T02:37:37.289Z,100.00
2018-08-06T02:40:07.739Z,100.00
2018-08-06T02:42:36.635Z,100.00
2018-08-06T02:45:06.853Z,100.00
2018-08-06T02:47:35.694Z,100.00
2018-08-06T02:50:04.905Z,100.00
2018-08-06T02:52:33.838Z,100.00
2018-08-06T02:55:02.898Z,100.00
2018-08-06T02:57:31.707Z,100.00
2018-08-06T03:00:00.641Z,100.00
2018-08-06T03:02:29.585Z,100.00
2018-08-06T03:04:58.755Z,100.00
2018-08-06T03:07:27.624Z,100.00
2018-08-06T03:09:56.534Z,100.00
2018-08-06T03:12:25.354Z,100.00
2018-08-06T03:14:54.275Z,100.00
2018-08-06T03:17:23.211Z,100.00
2018-08-06T03:19:52.024Z,100.00
2018-08-06T03:22:20.872Z,100.00
2018-08-06T03:24:49.752Z,100.00
2018-08-06T03:27:18.688Z,100.00
2018-08-06T03:29:47.580Z,100.00
2018-08-06T03:32:16.559Z,100.00
2018-08-06T03:34:45.475Z,100.00
2018-08-06T03:37:14.315Z,100.00
2018-08-06T03:39:43.219Z,100.00
2018-08-06T03:42:12.070Z,100.00
2018-08-06T03:44:40.888Z,100.00
2018-08-06T03:47:09.782Z,100.00
2018-08-06T03:49:38.616Z,100.00
2018-08-06T03:52:07.960Z,100.00
2018-08-06T03:54:36.843Z,100.00
2018-08-06T03:57:05.628Z,100.00
2018-08-06T03:59:34.459Z,100.00
2018-08-06T04:02:03.339Z,100.00
2018-08-06T04:04:32.175Z,100.00
2018-08-06T04:07:00.998Z,100.00
2018-08-06T04:09:29.827Z,100.00
2018-08-06T04:11:58.730Z,100.00
2018-08-06T04:14:27.725Z,100.00
2018-08-06T04:16:56.704Z,100.00
2018-08-06T04:19:25.499Z,100.00
2018-08-06T04:21:54.389Z,100.00
2018-08-06T04:24:23.223Z,100.00
2018-08-06T04:26:52.068Z,100.00
2018-08-06T04:29:20.947Z,100.00
2018-08-06T04:31:49.863Z,100.00
2018-08-06T04:34:18.718Z,100.00
2018-08-06T04:36:47.564Z,100.00
2018-08-06T04:39:16.467Z,100.00
2018-08-06T04:41:45.387Z,100.00
2018-08-06T04:44:14.189Z,100.00
2018-08-06T04:46:43.098Z,100.00
2018-08-06T04:49:11.895Z,100.00
2018-08-06T04:51:40.780Z,100.00
2018-08-06T04:54:09.703Z,100.00
2018-08-06T04:56:38.552Z,100.00
2018-08-06T04:59:07.356Z,100.00
2018-08-06T05:01:36.298Z,100.00
2018-08-06T05:04:05.168Z,100.00
2018-08-06T05:06:34.087Z,100.00
2018-08-06T05:09:03.118Z,100.00
2018-08-06T05:11:31.947Z,100.00
2018-08-06T05:14:00.741Z,100.00
2018-08-06T05:16:29.592Z,100.00
2018-08-06T05:18:58.433Z,100.00
2018-08-06T05:21:27.232Z,100.00
2018-08-06T05:23:57.623Z,100.00
2018-08-06T05:26:27.711Z,100.00
2018-08-06T05:28:56.591Z,100.00
2018-08-06T05:31:26.575Z,100.00
2018-08-06T05:33:56.443Z,100.00
2018-08-06T05:36:25.481Z,100.00
2018-08-06T05:38:55.693Z,100.00
2018-08-06T05:41:26.393Z,100.00
2018-08-06T05:43:56.262Z,100.00
2018-08-06T05:46:26.143Z,100.00
2018-08-06T05:48:55.214Z,100.00
2018-08-06T05:51:24.211Z,100.00
2018-08-06T05:53:53.101Z,100.00
2018-08-06T05:56:22.020Z,100.00
2018-08-06T05:58:51.007Z,100.00
2018-08-06T06:01:19.981Z,100.00
2018-08-06T06:03:48.853Z,100.00
2018-08-06T06:06:17.900Z,100.00
2018-08-06T06:08:46.837Z,100.00
2018-08-06T06:11:15.685Z,100.00
2018-08-06T06:13:44.626Z,100.00
2018-08-06T06:16:13.652Z,100.00
2018-08-06T06:18:42.636Z,100.00
2018-08-06T06:21:11.552Z,100.00
2018-08-06T06:23:40.565Z,100.00
2018-08-06T06:26:09.515Z,100.00
2018-08-06T06:28:38.535Z,98.91
2018-08-06T06:31:07.406Z,100.00
2018-08-06T06:33:36.295Z,100.00
2018-08-06T06:36:05.481Z,100.00
2018-08-06T06:38:34.317Z,94.27
2018-08-06T06:41:03.241Z,100.00
2018-08-06T06:43:32.257Z,93.05
2018-08-06T06:46:01.214Z,92.15
2018-08-06T06:48:30.117Z,90.84
2018-08-06T06:50:59.099Z,80.64
2018-08-06T06:53:28.073Z,81.79
2018-08-06T06:55:57.143Z,75.18
2018-08-06T06:58:26.299Z,76.02
2018-08-06T07:00:55.214Z,72.65
2018-08-06T07:03:24.242Z,65.93
2018-08-06T07:05:53.321Z,62.59
2018-08-06T07:08:22.223Z,62.56
2018-08-06T07:10:51.143Z,64.85
2018-08-06T07:13:21.065Z,70.73
2018-08-06T07:15:49.984Z,63.65
2018-08-06T07:18:18.962Z,65.96
2018-08-06T07:20:48.090Z,64.04
2018-08-06T07:23:17.192Z,65.40
2018-08-06T07:25:46.248Z,59.30
2018-08-06T07:28:15.285Z,57.68
2018-08-06T07:30:44.310Z,60.69
2018-08-06T07:33:13.160Z,57.44
2018-08-06T07:35:42.019Z,57.29
2018-08-06T07:38:11.093Z,55.27
2018-08-06T07:40:40.020Z,56.25
2018-08-06T07:43:08.983Z,59.58
2018-08-06T07:45:37.898Z,53.48
2018-08-06T07:48:06.878Z,55.14
2018-08-06T07:50:35.800Z,53.81
2018-08-06T07:53:04.866Z,52.67
2018-08-06T07:55:33.819Z,52.96
2018-08-06T07:58:02.746Z,52.67
2018-08-06T08:00:31.686Z,49.78
2018-08-06T08:03:00.655Z,50.96
2018-08-06T08:05:29.656Z,52.82
2018-08-06T08:07:58.598Z,50.51
2018-08-06T08:10:27.602Z,50.09
2018-08-06T08:12:56.496Z,48.31
2018-08-06T08:15:26.828Z,52.72
2018-08-06T08:17:57.258Z,48.47
2018-08-06T08:20:26.626Z,51.00
2018-08-06T08:22:55.599Z,50.84
2018-08-06T08:25:24.603Z,51.63
2018-08-06T08:27:53.480Z,48.50
2018-08-06T08:30:22.568Z,48.75
2018-08-06T08:32:51.509Z,50.79
2018-08-06T08:35:20.623Z,48.46
2018-08-06T08:37:49.670Z,46.48
2018-08-06T08:40:19.860Z,48.09
2018-08-06T08:42:48.864Z,49.46
2018-08-06T08:45:18.811Z,47.58
2018-08-06T08:47:47.980Z,48.33
2018-08-06T08:50:19.546Z,47.12
2018-08-06T08:52:48.564Z,43.09
2018-08-06T08:55:18.906Z,44.42
2018-08-06T08:57:47.998Z,45.76
2018-08-06T09:00:18.107Z,43.12
2018-08-06T09:02:48.253Z,43.91
2018-08-06T09:05:17.700Z,44.14
2018-08-06T09:07:47.038Z,41.72
2018-08-06T09:10:17.613Z,42.13
2018-08-06T09:12:46.863Z,42.62
2018-08-06T09:15:19.284Z,42.70
2018-08-06T09:17:48.196Z,42.79
2018-08-06T09:20:17.145Z,41.53
2018-08-06T09:22:46.704Z,37.75
2018-08-06T09:25:16.034Z,41.71
2018-08-06T09:27:46.263Z,43.04
2018-08-06T09:30:18.275Z,42.83
2018-08-06T09:32:48.516Z,39.35
2018-08-06T09:35:18.281Z,41.25
2018-08-06T09:37:47.427Z,42.83
2018-08-06T09:40:17.802Z,38.35
2018-08-06T09:42:47.371Z,36.59
2018-08-06T09:45:17.497Z,43.78
2018-08-06T09:47:47.771Z,40.18
2018-08-06T09:50:17.684Z,36.25
2018-08-06T09:52:47.796Z,35.77
2018-08-06T09:55:20.587Z,40.93
2018-08-06T09:57:50.273Z,40.56
2018-08-06T10:00:25.152Z,40.30
2018-08-06T10:02:55.180Z,39.58
2018-08-06T10:05:25.078Z,38.99
2018-08-06T10:07:54.350Z,36.34
2018-08-06T10:10:23.483Z,35.13
2018-08-06T10:12:52.661Z,34.50
2018-08-06T10:15:23.095Z,34.13
2018-08-06T10:17:54.252Z,34.38
2018-08-06T10:20:24.470Z,37.86
2018-08-06T10:22:53.445Z,37.35
2018-08-06T10:25:22.464Z,38.45
2018-08-06T10:27:51.402Z,38.71
2018-08-06T10:30:21.432Z,37.17
2018-08-06T10:32:50.535Z,36.33
2018-08-06T10:35:20.131Z,38.47
2018-08-06T10:37:49.209Z,36.19
2018-08-06T10:40:22.474Z,36.70
2018-08-06T10:42:51.442Z,35.64
2018-08-06T10:45:21.544Z,34.44
2018-08-06T10:47:50.968Z,34.18
2018-08-06T10:50:20.006Z,34.46
2018-08-06T10:52:48.904Z,33.06
2018-08-06T10:55:17.960Z,33.33
2018-08-06T10:57:47.254Z,34.23
2018-08-06T11:00:20.292Z,34.23
2018-08-06T11:02:49.472Z,34.39
2018-08-06T11:05:18.958Z,34.87
2018-08-06T11:07:48.858Z,34.09
2018-08-06T11:10:19.214Z,33.76
2018-08-06T11:12:48.211Z,34.15
2018-08-06T11:15:22.531Z,33.37
2018-08-06T11:17:51.554Z,33.03
2018-08-06T11:20:21.163Z,34.46
2018-08-06T11:22:50.103Z,32.91
2018-08-06T11:25:20.680Z,33.09
2018-08-06T11:27:49.792Z,32.62
2018-08-06T11:30:20.375Z,33.82
2018-08-06T11:32:49.903Z,33.30
2018-08-06T11:35:18.928Z,29.56
2018-08-06T11:37:47.962Z,24.80
2018-08-06T11:40:17.783Z,30.09
2018-08-06T11:42:47.260Z,27.55
2018-08-06T11:45:17.581Z,29.67
2018-08-06T11:47:46.485Z,29.72
2018-08-06T11:50:15.387Z,30.53
2018-08-06T11:52:44.309Z,30.90
2018-08-06T11:55:13.191Z,30.53
2018-08-06T11:57:42.105Z,28.05
2018-08-06T12:00:19.913Z,29.22
2018-08-06T12:02:48.817Z,30.09
2018-08-06T12:05:17.794Z,28.81
2018-08-06T12:07:46.740Z,28.83
2018-08-06T12:10:16.928Z,28.22
2018-08-06T12:12:46.635Z,23.85
2018-08-06T12:15:15.655Z,27.49
2018-08-06T12:17:44.840Z,27.63
2018-08-06T12:20:15.522Z,26.13
2018-08-06T12:22:45.790Z,27.30
2018-08-06T12:25:15.508Z,27.51
2018-08-06T12:27:44.977Z,25.96
2018-08-06T12:30:15.785Z,26.81
2018-08-06T12:32:45.392Z,27.63
2018-08-06T12:35:14.603Z,28.05
2018-08-06T12:37:43.727Z,26.99
2018-08-06T12:40:14.761Z,26.83
2018-08-06T12:42:43.720Z,26.18
2018-08-06T12:45:13.556Z,25.26
2018-08-06T12:47:42.828Z,26.42
2018-08-06T12:50:12.853Z,26.28
2018-08-06T12:52:42.402Z,28.07
2018-08-06T12:55:12.696Z,25.30
2018-08-06T12:57:42.202Z,25.57
2018-08-06T13:00:24.244Z,28.76
2018-08-06T13:02:53.790Z,31.61
2018-08-06T13:05:23.394Z,28.36
2018-08-06T13:07:52.387Z,30.71
2018-08-06T13:10:21.268Z,31.74
2018-08-06T13:12:50.188Z,31.79
2018-08-06T13:15:19.160Z,29.97
2018-08-06T13:17:48.039Z,30.48
2018-08-06T13:20:16.887Z,26.49
2018-08-06T13:22:45.866Z,30.43
2018-08-06T13:25:14.685Z,29.80
2018-08-06T13:27:43.537Z,28.06
2018-08-06T13:30:14.616Z,30.52
2018-08-06T13:32:44.299Z,32.62
2018-08-06T13:35:14.139Z,31.72
2018-08-06T13:37:43.004Z,28.69
2018-08-06T13:40:12.168Z,28.46
2018-08-06T13:42:41.118Z,27.28
2018-08-06T13:45:11.971Z,28.19
2018-08-06T13:47:40.851Z,30.23
2018-08-06T13:50:10.480Z,29.25
2018-08-06T13:52:39.382Z,27.82
2018-08-06T13:55:09.806Z,26.81
2018-08-06T13:57:38.919Z,28.96
2018-08-06T14:00:17.173Z,27.06
2018-08-06T14:02:46.361Z,30.82
2018-08-06T14:05:16.096Z,29.20
2018-08-06T14:07:46.851Z,29.90
2018-08-06T14:10:16.154Z,31.09
2018-08-06T14:12:45.001Z,29.76
2018-08-06T14:15:14.168Z,31.79
2018-08-06T14:17:43.685Z,32.12
2018-08-06T14:20:14.890Z,31.97
2018-08-06T14:22:43.735Z,30.07
2018-08-06T14:25:13.744Z,32.40
2018-08-06T14:27:42.771Z,32.78
2018-08-06T14:30:13.837Z,28.57
2018-08-06T14:32:43.254Z,28.08
2018-08-06T14:35:12.453Z,32.48
2018-08-06T14:37:41.391Z,32.23
2018-08-06T14:40:13.188Z,31.56
2018-08-06T14:42:42.116Z,29.69
2018-08-06T14:45:11.325Z,32.09
2018-08-06T14:47:40.251Z,30.52
2018-08-06T14:50:10.533Z,30.05
2018-08-06T14:52:39.455Z,28.52
2018-08-06T14:55:08.433Z,28.51
2018-08-06T14:57:38.531Z,30.03
2018-08-06T15:00:17.290Z,30.35
2018-08-06T15:02:46.676Z,29.36
2018-08-06T15:05:15.588Z,32.02
2018-08-06T15:07:44.950Z,33.46
2018-08-06T15:10:14.561Z,34.14
2018-08-06T15:12:43.633Z,34.18
2018-08-06T15:15:14.298Z,31.09
2018-08-06T15:17:43.895Z,29.17
2018-08-06T15:20:14.488Z,32.66
2018-08-06T15:22:43.443Z,34.86
2018-08-06T15:25:19.307Z,31.18
2018-08-06T15:27:48.275Z,30.86
2018-08-06T15:30:17.163Z,31.02
2018-08-06T15:32:46.203Z,31.01
2018-08-06T15:35:15.275Z,31.69
2018-08-06T15:37:44.955Z,30.63
2018-08-06T15:40:17.910Z,30.29
2018-08-06T15:42:46.863Z,30.31
2018-08-06T15:45:15.958Z,30.90
2018-08-06T15:47:45.797Z,31.11
2018-08-06T15:50:16.849Z,31.52
2018-08-06T15:52:45.809Z,31.66
2018-08-06T15:55:14.882Z,32.09
2018-08-06T15:57:43.890Z,32.42
2018-08-06T16:00:15.257Z,31.73
2018-08-06T16:02:44.532Z,32.44
2018-08-06T16:05:13.669Z,32.79
2018-08-06T16:07:42.722Z,33.27
2018-08-06T16:10:12.451Z,32.33
2018-08-06T16:12:41.690Z,36.32
2018-08-06T16:15:12.420Z,37.81
2018-08-06T16:17:42.095Z,34.87
2018-08-06T16:20:18.403Z,35.28
2018-08-06T16:22:47.351Z,36.94
2018-08-06T16:25:16.396Z,36.53
2018-08-06T16:27:45.359Z,37.81
2018-08-06T16:30:16.674Z,39.32
2018-08-06T16:32:46.553Z,39.44
2018-08-06T16:35:16.345Z,40.09
2018-08-06T16:37:45.308Z,41.65
2018-08-06T16:40:14.669Z,42.23
2018-08-06T16:42:43.816Z,42.45
2018-08-06T16:45:12.715Z,42.69
2018-08-06T16:47:41.691Z,43.71
2018-08-06T16:50:12.596Z,43.25
2018-08-06T16:52:41.716Z,43.24
2018-08-06T16:55:11.821Z,42.24
2018-08-06T16:57:41.002Z,41.96
2018-08-06T17:00:17.407Z,41.59
2018-08-06T17:02:46.469Z,38.76
2018-08-06T17:05:15.502Z,37.85
2018-08-06T17:07:46.702Z,38.57
2018-08-06T17:10:17.947Z,38.06
2018-08-06T17:12:48.096Z,38.14
2018-08-06T17:15:18.287Z,37.10
2018-08-06T17:17:47.871Z,37.17
2018-08-06T17:20:18.450Z,37.74
2018-08-06T17:22:48.453Z,38.26
2018-08-06T17:25:17.524Z,37.58
2018-08-06T17:27:46.435Z,38.41
2018-08-06T17:30:16.145Z,37.31
2018-08-06T17:32:45.113Z,37.35
2018-08-06T17:35:14.586Z,38.31
2018-08-06T17:37:43.493Z,38.63
2018-08-06T17:40:17.319Z,38.96
2018-08-06T17:42:46.159Z,38.92
2018-08-06T17:45:17.013Z,39.21
2018-08-06T17:47:45.984Z,38.51
2018-08-06T17:50:19.833Z,38.40
2018-08-06T17:52:49.878Z,38.80
2018-08-06T17:55:19.765Z,39.74
2018-08-06T17:57:48.970Z,39.62
2018-08-06T18:00:18.474Z,40.75
2018-08-06T18:02:47.539Z,39.29
2018-08-06T18:05:17.172Z,40.00
2018-08-06T18:07:46.088Z,40.07
2018-08-06T18:10:16.303Z,40.57
2018-08-06T18:12:45.924Z,40.60
2018-08-06T18:15:14.972Z,40.06
2018-08-06T18:17:43.851Z,40.97
2018-08-06T18:20:14.919Z,44.99
2018-08-06T18:22:43.872Z,45.04
2018-08-06T18:25:15.518Z,45.09
2018-08-06T18:27:45.542Z,46.48
2018-08-06T18:30:16.247Z,44.92
2018-08-06T18:32:45.222Z,44.05
2018-08-06T18:35:15.699Z,45.60
2018-08-06T18:37:44.616Z,45.34
2018-08-06T18:40:14.344Z,42.18
2018-08-06T18:42:43.326Z,43.93
2018-08-06T18:45:14.569Z,41.30
2018-08-06T18:47:45.933Z,41.08
2018-08-06T18:50:15.690Z,39.62
2018-08-06T18:52:45.515Z,41.41
2018-08-06T18:55:15.373Z,41.50
2018-08-06T18:57:44.709Z,40.48
2018-08-06T19:00:19.755Z,39.47
2018-08-06T19:02:48.834Z,38.46
2018-08-06T19:05:17.823Z,38.61
2018-08-06T19:10:25.559Z,38.86
2018-08-06T19:12:59.709Z,39.61
2018-08-06T19:15:28.686Z,39.89
2018-08-06T19:18:02.680Z,39.23
2018-08-06T19:20:31.692Z,38.27
2018-08-06T19:23:00.674Z,38.05
2018-08-06T19:25:31.001Z,38.41
2018-08-06T19:27:59.966Z,38.49
2018-08-06T19:30:33.901Z,37.82
2018-08-06T19:33:03.108Z,38.28
2018-08-06T19:35:32.098Z,38.40
2018-08-06T19:38:00.989Z,38.64
2018-08-06T19:40:30.045Z,38.46
2018-08-06T19:43:04.016Z,38.90
2018-08-06T19:45:33.079Z,39.25
2018-08-06T19:48:01.905Z,38.94
2018-08-06T19:50:36.008Z,39.84
2018-08-06T19:53:05.130Z,39.63
2018-08-06T19:55:39.312Z,39.75
2018-08-06T19:58:08.245Z,39.89
2018-08-06T20:00:37.195Z,39.88
2018-08-06T20:03:06.344Z,40.03
2018-08-06T20:05:35.341Z,40.40
2018-08-06T20:08:04.370Z,38.95
2018-08-06T20:10:33.441Z,40.29
2018-08-06T20:13:02.431Z,39.66
2018-08-06T20:15:31.329Z,39.51
2018-08-06T20:18:00.414Z,40.16
2018-08-06T20:20:29.333Z,39.84
2018-08-06T20:22:58.226Z,40.52
2018-08-06T20:25:27.154Z,40.55
2018-08-06T20:27:56.177Z,39.85
2018-08-06T20:30:25.040Z,39.99
2018-08-06T20:32:54.612Z,40.45
2018-08-06T20:35:23.657Z,40.18
2018-08-06T20:37:52.676Z,42.64
2018-08-06T20:40:21.623Z,44.73
2018-08-06T20:42:50.462Z,43.17
2018-08-06T20:45:20.626Z,43.13
2018-08-06T20:47:49.714Z,44.05
2018-08-06T20:50:20.416Z,43.66
2018-08-06T20:52:50.207Z,43.40
2018-08-06T20:55:19.170Z,43.84
2018-08-06T20:57:48.456Z,43.58
2018-08-06T21:00:19.670Z,44.88
2018-08-06T21:02:49.372Z,44.23
2018-08-06T21:05:18.374Z,46.72
2018-08-06T21:07:47.451Z,49.25
2018-08-06T21:10:17.305Z,49.77
2018-08-06T21:12:46.604Z,49.50
2018-08-06T21:15:16.065Z,47.42
2018-08-06T21:17:45.188Z,51.63
2018-08-06T21:20:15.994Z,53.23
2018-08-06T21:22:46.907Z,51.93
2018-08-06T21:25:16.171Z,51.06
2018-08-06T21:27:46.156Z,54.83
2018-08-06T21:30:17.155Z,51.56
2018-08-06T21:32:53.228Z,51.06
2018-08-06T21:35:23.269Z,50.58
2018-08-06T21:37:53.083Z,51.66
2018-08-06T21:40:22.916Z,52.19
2018-08-06T21:42:52.198Z,52.51
2018-08-06T21:45:21.303Z,52.87
2018-08-06T21:47:50.533Z,53.13
2018-08-06T21:50:19.421Z,53.52
2018-08-06T21:52:48.241Z,53.91
2018-08-06T21:55:17.215Z,54.09
2018-08-06T21:57:46.112Z,54.13
2018-08-06T22:00:35.646Z,53.77
2018-08-06T22:03:06.138Z,56.02
2018-08-06T22:05:35.043Z,54.75
2018-08-06T22:08:04.086Z,55.57
2018-08-06T22:10:33.040Z,58.13
2018-08-06T22:13:01.883Z,56.22
2018-08-06T22:15:30.831Z,55.57
2018-08-06T22:17:59.734Z,56.42
2018-08-06T22:20:28.678Z,56.81
2018-08-06T22:22:57.628Z,57.13
2018-08-06T22:25:26.608Z,57.31
2018-08-06T22:27:55.533Z,58.40
2018-08-06T22:30:24.500Z,58.24
2018-08-06T22:32:53.385Z,57.19
2018-08-06T22:35:22.246Z,57.10
2018-08-06T22:37:51.133Z,56.90
2018-08-06T22:40:20.012Z,55.23
2018-08-06T22:42:48.903Z,54.96
2018-08-06T22:45:17.868Z,54.03
2018-08-06T22:47:46.788Z,52.53
2018-08-06T22:50:15.633Z,52.64
2018-08-06T22:52:44.592Z,56.71
2018-08-06T22:55:13.765Z,54.87
2018-08-06T22:57:43.188Z,56.88
2018-08-06T23:00:14.316Z,59.15
2018-08-06T23:02:43.642Z,57.69
2018-08-06T23:05:13.769Z,56.07
2018-08-06T23:07:42.652Z,59.44
2018-08-06T23:10:14.539Z,60.12
2018-08-06T23:12:43.542Z,58.04
2018-08-06T23:15:14.984Z,58.41
2018-08-06T23:17:44.520Z,60.49
2018-08-06T23:20:13.485Z,59.57
2018-08-06T23:22:43.043Z,58.29
2018-08-06T23:25:12.026Z,59.93
2018-08-06T23:27:41.395Z,59.17
2018-08-06T23:30:12.927Z,57.63
2018-08-06T23:32:42.198Z,56.73
2018-08-06T23:35:12.399Z,56.61
2018-08-06T23:37:42.500Z,56.62
2018-08-06T23:40:12.354Z,57.21
2018-08-06T23:42:41.815Z,56.46
2018-08-06T23:45:11.860Z,55.96
2018-08-06T23:47:41.206Z,55.97
2018-08-06T23:50:11.868Z,56.03
2018-08-06T23:52:42.203Z,55.82
2018-08-06T23:55:12.483Z,57.55
2018-08-06T23:57:41.420Z,59.51
